sensor_id;sensor_type;location;lat;lon;timestamp;temperature;humidity
65374;SHT31;52070;53.760;9.678;2022-09-27T00:00:44;10.85;95.23
65374;SHT31;52070;53.760;9.678;2022-09-27T00:03:11;10.85;95.21
65374;SHT31;52070;53.760;9.678;2022-09-27T00:05:40;10.87;95.19
65374;SHT31;52070;53.760;9.678;2022-09-27T00:08:07;10.85;95.18
65374;SHT31;52070;53.760;9.678;2022-09-27T00:10:34;10.84;95.10
65374;SHT31;52070;53.760;9.678;2022-09-27T00:13:01;10.82;95.09
65374;SHT31;52070;53.760;9.678;2022-09-27T00:15:28;10.84;95.07
65374;SHT31;52070;53.760;9.678;2022-09-27T00:17:56;10.85;95.09
65374;SHT31;52070;53.760;9.678;2022-09-27T00:20:23;10.82;95.03
65374;SHT31;52070;53.760;9.678;2022-09-27T00:22:50;10.79;95.04
65374;SHT31;52070;53.760;9.678;2022-09-27T00:25:17;10.84;95.04
65374;SHT31;52070;53.760;9.678;2022-09-27T00:27:44;10.85;95.13
65374;SHT31;52070;53.760;9.678;2022-09-27T00:30:12;10.87;95.13
65374;SHT31;52070;53.760;9.678;2022-09-27T00:32:39;10.85;95.13
65374;SHT31;52070;53.760;9.678;2022-09-27T00:35:10;10.87;95.09
65374;SHT31;52070;53.760;9.678;2022-09-27T00:37:41;10.82;95.08
65374;SHT31;52070;53.760;9.678;2022-09-27T00:40:08;10.85;95.11
65374;SHT31;52070;53.760;9.678;2022-09-27T00:42:35;10.84;95.07
65374;SHT31;52070;53.760;9.678;2022-09-27T00:45:08;10.85;95.08
65374;SHT31;52070;53.760;9.678;2022-09-27T00:47:45;10.84;95.11
65374;SHT31;52070;53.760;9.678;2022-09-27T00:50:22;10.82;95.19
65374;SHT31;52070;53.760;9.678;2022-09-27T00:52:58;10.81;95.17
65374;SHT31;52070;53.760;9.678;2022-09-27T00:55:27;10.84;95.21
65374;SHT31;52070;53.760;9.678;2022-09-27T00:57:56;10.81;95.19
65374;SHT31;52070;53.760;9.678;2022-09-27T01:00:23;10.82;95.19
65374;SHT31;52070;53.760;9.678;2022-09-27T01:02:52;10.82;95.18
65374;SHT31;52070;53.760;9.678;2022-09-27T01:05:24;10.82;95.21
65374;SHT31;52070;53.760;9.678;2022-09-27T01:07:52;10.84;95.23
65374;SHT31;52070;53.760;9.678;2022-09-27T01:10:22;10.82;95.20
65374;SHT31;52070;53.760;9.678;2022-09-27T01:12:57;10.78;95.16
65374;SHT31;52070;53.760;9.678;2022-09-27T01:15:33;10.77;95.14
65374;SHT31;52070;53.760;9.678;2022-09-27T01:18:24;10.78;95.21
65374;SHT31;52070;53.760;9.678;2022-09-27T01:21:14;10.81;95.24
65374;SHT31;52070;53.760;9.678;2022-09-27T01:24:07;10.81;95.23
65374;SHT31;52070;53.760;9.678;2022-09-27T01:27:13;10.79;95.20
65374;SHT31;52070;53.760;9.678;2022-09-27T01:29:55;10.79;95.19
65374;SHT31;52070;53.760;9.678;2022-09-27T01:32:32;10.78;95.25
65374;SHT31;52070;53.760;9.678;2022-09-27T01:35:02;10.78;95.18
65374;SHT31;52070;53.760;9.678;2022-09-27T01:37:36;10.77;95.22
65374;SHT31;52070;53.760;9.678;2022-09-27T01:40:08;10.72;95.22
65374;SHT31;52070;53.760;9.678;2022-09-27T01:42:38;10.72;95.25
65374;SHT31;52070;53.760;9.678;2022-09-27T01:45:10;10.74;95.28
65374;SHT31;52070;53.760;9.678;2022-09-27T01:47:43;10.71;95.29
65374;SHT31;52070;53.760;9.678;2022-09-27T01:50:14;10.69;95.28
65374;SHT31;52070;53.760;9.678;2022-09-27T01:52:46;10.72;95.30
65374;SHT31;52070;53.760;9.678;2022-09-27T01:55:16;10.72;95.31
65374;SHT31;52070;53.760;9.678;2022-09-27T01:57:48;10.72;95.35
65374;SHT31;52070;53.760;9.678;2022-09-27T02:00:16;10.72;95.35
65374;SHT31;52070;53.760;9.678;2022-09-27T02:02:48;10.69;95.34
65374;SHT31;52070;53.760;9.678;2022-09-27T02:05:17;10.69;95.38
65374;SHT31;52070;53.760;9.678;2022-09-27T02:07:48;10.71;95.39
65374;SHT31;52070;53.760;9.678;2022-09-27T02:10:20;10.69;95.39
65374;SHT31;52070;53.760;9.678;2022-09-27T02:12:51;10.69;95.41
65374;SHT31;52070;53.760;9.678;2022-09-27T02:15:22;10.72;95.41
65374;SHT31;52070;53.760;9.678;2022-09-27T02:17:55;10.71;95.45
65374;SHT31;52070;53.760;9.678;2022-09-27T02:20:28;10.69;95.44
65374;SHT31;52070;53.760;9.678;2022-09-27T02:23:03;10.72;95.51
65374;SHT31;52070;53.760;9.678;2022-09-27T02:25:39;10.71;95.47
65374;SHT31;52070;53.760;9.678;2022-09-27T02:28:13;10.72;95.55
65374;SHT31;52070;53.760;9.678;2022-09-27T02:30:42;10.71;95.52
65374;SHT31;52070;53.760;9.678;2022-09-27T02:33:11;10.69;95.50
65374;SHT31;52070;53.760;9.678;2022-09-27T02:35:38;10.69;95.49
65374;SHT31;52070;53.760;9.678;2022-09-27T02:38:05;10.71;95.50
65374;SHT31;52070;53.760;9.678;2022-09-27T02:40:35;10.72;95.50
65374;SHT31;52070;53.760;9.678;2022-09-27T02:43:04;10.72;95.53
65374;SHT31;52070;53.760;9.678;2022-09-27T02:45:45;10.77;95.56
65374;SHT31;52070;53.760;9.678;2022-09-27T02:48:25;10.74;95.54
65374;SHT31;52070;53.760;9.678;2022-09-27T02:51:10;10.74;95.54
65374;SHT31;52070;53.760;9.678;2022-09-27T02:53:47;10.75;95.53
65374;SHT31;52070;53.760;9.678;2022-09-27T02:56:23;10.71;95.53
65374;SHT31;52070;53.760;9.678;2022-09-27T02:58:57;10.72;95.51
65374;SHT31;52070;53.760;9.678;2022-09-27T03:01:33;10.74;95.53
65374;SHT31;52070;53.760;9.678;2022-09-27T03:04:09;10.69;95.50
65374;SHT31;52070;53.760;9.678;2022-09-27T03:06:41;10.72;95.54
65374;SHT31;52070;53.760;9.678;2022-09-27T03:09:16;10.74;95.54
65374;SHT31;52070;53.760;9.678;2022-09-27T03:11:43;10.75;95.56
65374;SHT31;52070;53.760;9.678;2022-09-27T03:14:10;10.72;95.58
65374;SHT31;52070;53.760;9.678;2022-09-27T03:16:37;10.71;95.58
65374;SHT31;52070;53.760;9.678;2022-09-27T03:19:05;10.72;95.58
65374;SHT31;52070;53.760;9.678;2022-09-27T03:21:32;10.72;95.59
65374;SHT31;52070;53.760;9.678;2022-09-27T03:24:00;10.71;95.62
65374;SHT31;52070;53.760;9.678;2022-09-27T03:26:27;10.71;95.62
65374;SHT31;52070;53.760;9.678;2022-09-27T03:28:54;10.74;95.63
65374;SHT31;52070;53.760;9.678;2022-09-27T03:31:21;10.71;95.63
65374;SHT31;52070;53.760;9.678;2022-09-27T03:33:48;10.71;95.64
65374;SHT31;52070;53.760;9.678;2022-09-27T03:36:16;10.72;95.68
65374;SHT31;52070;53.760;9.678;2022-09-27T03:38:43;10.71;95.72
65374;SHT31;52070;53.760;9.678;2022-09-27T03:41:10;10.75;95.69
65374;SHT31;52070;53.760;9.678;2022-09-27T03:43:37;10.72;95.73
65374;SHT31;52070;53.760;9.678;2022-09-27T03:46:04;10.69;95.72
65374;SHT31;52070;53.760;9.678;2022-09-27T03:48:31;10.69;95.73
65374;SHT31;52070;53.760;9.678;2022-09-27T03:50:58;10.71;95.72
65374;SHT31;52070;53.760;9.678;2022-09-27T03:53:27;10.69;95.78
65374;SHT31;52070;53.760;9.678;2022-09-27T03:55:54;10.67;95.75
65374;SHT31;52070;53.760;9.678;2022-09-27T03:58:21;10.65;95.80
65374;SHT31;52070;53.760;9.678;2022-09-27T04:00:48;10.68;95.82
65374;SHT31;52070;53.760;9.678;2022-09-27T04:03:15;10.64;95.86
65374;SHT31;52070;53.760;9.678;2022-09-27T04:05:42;10.67;95.87
65374;SHT31;52070;53.760;9.678;2022-09-27T04:08:09;10.69;95.91
65374;SHT31;52070;53.760;9.678;2022-09-27T04:10:38;10.69;95.93
65374;SHT31;52070;53.760;9.678;2022-09-27T04:13:05;10.69;95.95
65374;SHT31;52070;53.760;9.678;2022-09-27T04:15:31;10.69;95.96
65374;SHT31;52070;53.760;9.678;2022-09-27T04:17:58;10.69;95.98
65374;SHT31;52070;53.760;9.678;2022-09-27T04:20:25;10.69;95.93
65374;SHT31;52070;53.760;9.678;2022-09-27T04:22:52;10.68;95.99
65374;SHT31;52070;53.760;9.678;2022-09-27T04:25:19;10.69;95.93
65374;SHT31;52070;53.760;9.678;2022-09-27T04:27:48;10.71;95.95
65374;SHT31;52070;53.760;9.678;2022-09-27T04:30:20;10.72;95.98
65374;SHT31;52070;53.760;9.678;2022-09-27T04:32:47;10.69;95.96
65374;SHT31;52070;53.760;9.678;2022-09-27T04:35:14;10.71;95.99
65374;SHT31;52070;53.760;9.678;2022-09-27T04:37:59;10.71;95.97
65374;SHT31;52070;53.760;9.678;2022-09-27T04:40:26;10.74;96.00
65374;SHT31;52070;53.760;9.678;2022-09-27T04:42:54;10.72;95.99
65374;SHT31;52070;53.760;9.678;2022-09-27T04:45:21;10.75;96.06
65374;SHT31;52070;53.760;9.678;2022-09-27T04:47:49;10.75;96.07
65374;SHT31;52070;53.760;9.678;2022-09-27T04:50:16;10.77;96.02
65374;SHT31;52070;53.760;9.678;2022-09-27T04:52:49;10.75;96.04
65374;SHT31;52070;53.760;9.678;2022-09-27T04:55:16;10.77;96.01
65374;SHT31;52070;53.760;9.678;2022-09-27T04:57:43;10.78;96.06
65374;SHT31;52070;53.760;9.678;2022-09-27T05:00:13;10.78;96.07
65374;SHT31;52070;53.760;9.678;2022-09-27T05:02:41;10.78;96.02
65374;SHT31;52070;53.760;9.678;2022-09-27T05:05:08;10.78;96.01
65374;SHT31;52070;53.760;9.678;2022-09-27T05:07:36;10.79;96.04
65374;SHT31;52070;53.760;9.678;2022-09-27T05:10:04;10.78;96.03
65374;SHT31;52070;53.760;9.678;2022-09-27T05:12:31;10.81;96.09
65374;SHT31;52070;53.760;9.678;2022-09-27T05:14:58;10.82;96.07
65374;SHT31;52070;53.760;9.678;2022-09-27T05:17:26;10.81;96.02
65374;SHT31;52070;53.760;9.678;2022-09-27T05:19:53;10.78;96.03
65374;SHT31;52070;53.760;9.678;2022-09-27T05:22:20;10.78;96.01
65374;SHT31;52070;53.760;9.678;2022-09-27T05:24:47;10.79;96.04
65374;SHT31;52070;53.760;9.678;2022-09-27T05:27:15;10.78;96.04
65374;SHT31;52070;53.760;9.678;2022-09-27T05:29:45;10.79;96.06
65374;SHT31;52070;53.760;9.678;2022-09-27T05:32:12;10.77;96.06
65374;SHT31;52070;53.760;9.678;2022-09-27T05:34:41;10.78;96.04
65374;SHT31;52070;53.760;9.678;2022-09-27T05:37:08;10.79;96.09
65374;SHT31;52070;53.760;9.678;2022-09-27T05:39:35;10.79;96.12
65374;SHT31;52070;53.760;9.678;2022-09-27T05:42:02;10.79;96.11
65374;SHT31;52070;53.760;9.678;2022-09-27T05:44:31;10.77;96.14
65374;SHT31;52070;53.760;9.678;2022-09-27T05:47:00;10.75;96.17
65374;SHT31;52070;53.760;9.678;2022-09-27T05:49:28;10.77;96.20
65374;SHT31;52070;53.760;9.678;2022-09-27T05:51:57;10.79;96.23
65374;SHT31;52070;53.760;9.678;2022-09-27T05:54:25;10.77;96.29
65374;SHT31;52070;53.760;9.678;2022-09-27T05:56:53;10.71;96.29
65374;SHT31;52070;53.760;9.678;2022-09-27T05:59:23;10.72;96.35
65374;SHT31;52070;53.760;9.678;2022-09-27T06:01:50;10.69;96.41
65374;SHT31;52070;53.760;9.678;2022-09-27T06:04:17;10.67;96.41
65374;SHT31;52070;53.760;9.678;2022-09-27T06:06:45;10.60;96.33
65374;SHT31;52070;53.760;9.678;2022-09-27T06:09:14;10.65;96.35
65374;SHT31;52070;53.760;9.678;2022-09-27T06:11:42;10.67;96.40
65374;SHT31;52070;53.760;9.678;2022-09-27T06:14:10;10.69;96.39
65374;SHT31;52070;53.760;9.678;2022-09-27T06:16:37;10.63;96.38
65374;SHT31;52070;53.760;9.678;2022-09-27T06:19:04;10.61;96.38
65374;SHT31;52070;53.760;9.678;2022-09-27T06:21:31;10.60;96.36
65374;SHT31;52070;53.760;9.678;2022-09-27T06:23:58;10.61;96.38
65374;SHT31;52070;53.760;9.678;2022-09-27T06:26:26;10.60;96.48
65374;SHT31;52070;53.760;9.678;2022-09-27T06:28:53;10.63;96.47
65374;SHT31;52070;53.760;9.678;2022-09-27T06:31:20;10.58;96.50
65374;SHT31;52070;53.760;9.678;2022-09-27T06:33:48;10.57;96.51
65374;SHT31;52070;53.760;9.678;2022-09-27T06:36:15;10.60;96.51
65374;SHT31;52070;53.760;9.678;2022-09-27T06:38:42;10.63;96.52
65374;SHT31;52070;53.760;9.678;2022-09-27T06:41:11;10.61;96.56
65374;SHT31;52070;53.760;9.678;2022-09-27T06:43:41;10.65;96.56
65374;SHT31;52070;53.760;9.678;2022-09-27T06:46:08;10.65;96.56
65374;SHT31;52070;53.760;9.678;2022-09-27T06:48:35;10.64;96.55
65374;SHT31;52070;53.760;9.678;2022-09-27T06:51:03;10.61;96.55
65374;SHT31;52070;53.760;9.678;2022-09-27T06:53:30;10.65;96.62
65374;SHT31;52070;53.760;9.678;2022-09-27T06:55:58;10.68;96.67
65374;SHT31;52070;53.760;9.678;2022-09-27T06:58:26;10.75;96.69
65374;SHT31;52070;53.760;9.678;2022-09-27T07:01:12;10.77;96.66
65374;SHT31;52070;53.760;9.678;2022-09-27T07:03:39;10.82;96.66
65374;SHT31;52070;53.760;9.678;2022-09-27T07:06:14;10.84;96.65
65374;SHT31;52070;53.760;9.678;2022-09-27T07:08:42;10.84;96.61
65374;SHT31;52070;53.760;9.678;2022-09-27T07:11:09;10.88;96.59
65374;SHT31;52070;53.760;9.678;2022-09-27T07:13:36;10.92;96.57
65374;SHT31;52070;53.760;9.678;2022-09-27T07:16:10;10.95;96.52
65374;SHT31;52070;53.760;9.678;2022-09-27T07:18:39;10.97;96.50
65374;SHT31;52070;53.760;9.678;2022-09-27T07:21:06;10.99;96.43
65374;SHT31;52070;53.760;9.678;2022-09-27T07:23:34;10.89;96.21
65374;SHT31;52070;53.760;9.678;2022-09-27T07:26:02;10.77;95.86
65374;SHT31;52070;53.760;9.678;2022-09-27T07:28:32;10.67;95.18
65374;SHT31;52070;53.760;9.678;2022-09-27T07:30:59;10.67;95.07
65374;SHT31;52070;53.760;9.678;2022-09-27T07:33:27;10.61;94.62
65374;SHT31;52070;53.760;9.678;2022-09-27T07:35:55;10.57;94.50
65374;SHT31;52070;53.760;9.678;2022-09-27T07:38:22;10.60;94.55
65374;SHT31;52070;53.760;9.678;2022-09-27T07:40:49;10.56;94.62
65374;SHT31;52070;53.760;9.678;2022-09-27T07:43:16;10.60;94.73
65374;SHT31;52070;53.760;9.678;2022-09-27T07:45:44;10.64;94.85
65374;SHT31;52070;53.760;9.678;2022-09-27T07:48:12;10.64;94.98
65374;SHT31;52070;53.760;9.678;2022-09-27T07:50:40;10.63;95.01
65374;SHT31;52070;53.760;9.678;2022-09-27T07:53:08;10.65;95.10
65374;SHT31;52070;53.760;9.678;2022-09-27T07:55:37;10.67;95.21
65374;SHT31;52070;53.760;9.678;2022-09-27T07:58:06;10.72;95.31
65374;SHT31;52070;53.760;9.678;2022-09-27T08:00:33;10.75;95.42
65374;SHT31;52070;53.760;9.678;2022-09-27T08:03:04;10.72;95.47
65374;SHT31;52070;53.760;9.678;2022-09-27T08:05:33;10.75;95.53
65374;SHT31;52070;53.760;9.678;2022-09-27T08:08:00;10.75;95.56
65374;SHT31;52070;53.760;9.678;2022-09-27T08:10:30;10.71;95.51
65374;SHT31;52070;53.760;9.678;2022-09-27T08:12:57;10.75;95.56
65374;SHT31;52070;53.760;9.678;2022-09-27T08:15:24;10.78;95.66
65374;SHT31;52070;53.760;9.678;2022-09-27T08:17:53;10.84;95.65
65374;SHT31;52070;53.760;9.678;2022-09-27T08:20:20;10.81;95.66
65374;SHT31;52070;53.760;9.678;2022-09-27T08:22:47;10.91;95.69
65374;SHT31;52070;53.760;9.678;2022-09-27T08:25:14;10.88;95.75
65374;SHT31;52070;53.760;9.678;2022-09-27T08:27:43;10.82;95.40
65374;SHT31;52070;53.760;9.678;2022-09-27T08:30:20;10.87;95.35
65374;SHT31;52070;53.760;9.678;2022-09-27T08:32:47;10.87;95.34
65374;SHT31;52070;53.760;9.678;2022-09-27T08:35:14;10.89;95.19
65374;SHT31;52070;53.760;9.678;2022-09-27T08:37:41;10.94;95.09
65374;SHT31;52070;53.760;9.678;2022-09-27T08:40:09;10.94;94.99
65374;SHT31;52070;53.760;9.678;2022-09-27T08:42:48;10.95;94.99
65374;SHT31;52070;53.760;9.678;2022-09-27T08:45:24;10.99;95.11
65374;SHT31;52070;53.760;9.678;2022-09-27T08:47:55;11.05;95.23
65374;SHT31;52070;53.760;9.678;2022-09-27T08:50:26;11.08;95.22
65374;SHT31;52070;53.760;9.678;2022-09-27T08:52:57;11.08;95.21
65374;SHT31;52070;53.760;9.678;2022-09-27T08:55:29;11.08;95.25
65374;SHT31;52070;53.760;9.678;2022-09-27T08:57:59;11.05;94.91
65374;SHT31;52070;53.760;9.678;2022-09-27T09:00:28;11.05;94.90
65374;SHT31;52070;53.760;9.678;2022-09-27T09:02:55;11.07;94.80
65374;SHT31;52070;53.760;9.678;2022-09-27T09:05:28;11.11;94.84
65374;SHT31;52070;53.760;9.678;2022-09-27T09:08:20;11.15;94.91
65374;SHT31;52070;53.760;9.678;2022-09-27T09:10:52;11.05;94.63
65374;SHT31;52070;53.760;9.678;2022-09-27T09:14:07;10.91;94.44
65374;SHT31;52070;53.760;9.678;2022-09-27T09:16:43;10.85;94.67
65374;SHT31;52070;53.760;9.678;2022-09-27T09:19:25;10.81;94.75
65374;SHT31;52070;53.760;9.678;2022-09-27T09:21:59;10.78;94.79
65374;SHT31;52070;53.760;9.678;2022-09-27T09:24:37;10.81;94.96
65374;SHT31;52070;53.760;9.678;2022-09-27T09:27:16;10.79;95.17
65374;SHT31;52070;53.760;9.678;2022-09-27T09:33:03;10.77;94.81
65374;SHT31;52070;53.760;9.678;2022-09-27T09:35:38;10.75;94.68
65374;SHT31;52070;53.760;9.678;2022-09-27T09:38:11;10.79;94.66
65374;SHT31;52070;53.760;9.678;2022-09-27T09:40:43;10.79;94.71
65374;SHT31;52070;53.760;9.678;2022-09-27T09:43:17;10.77;94.76
65374;SHT31;52070;53.760;9.678;2022-09-27T09:45:48;10.81;94.84
65374;SHT31;52070;53.760;9.678;2022-09-27T09:48:22;10.78;94.91
65374;SHT31;52070;53.760;9.678;2022-09-27T09:50:53;10.75;94.72
65374;SHT31;52070;53.760;9.678;2022-09-27T09:53:28;10.71;94.82
65374;SHT31;52070;53.760;9.678;2022-09-27T09:56:01;10.64;94.87
65374;SHT31;52070;53.760;9.678;2022-09-27T09:58:34;10.65;94.89
65374;SHT31;52070;53.760;9.678;2022-09-27T10:01:13;10.61;94.82
65374;SHT31;52070;53.760;9.678;2022-09-27T10:03:41;10.61;94.92
65374;SHT31;52070;53.760;9.678;2022-09-27T10:06:09;10.64;95.02
65374;SHT31;52070;53.760;9.678;2022-09-27T10:08:38;10.63;95.01
65374;SHT31;52070;53.760;9.678;2022-09-27T10:11:05;10.60;94.94
65374;SHT31;52070;53.760;9.678;2022-09-27T10:13:33;10.61;95.06
65374;SHT31;52070;53.760;9.678;2022-09-27T10:16:04;10.60;95.10
65374;SHT31;52070;53.760;9.678;2022-09-27T10:18:31;10.61;94.93
65374;SHT31;52070;53.760;9.678;2022-09-27T10:21:05;10.60;95.07
65374;SHT31;52070;53.760;9.678;2022-09-27T10:23:33;10.61;95.20
65374;SHT31;52070;53.760;9.678;2022-09-27T10:26:02;10.58;95.18
65374;SHT31;52070;53.760;9.678;2022-09-27T10:28:35;10.63;95.33
65374;SHT31;52070;53.760;9.678;2022-09-27T10:31:04;10.63;95.08
65374;SHT31;52070;53.760;9.678;2022-09-27T10:33:33;10.63;94.91
65374;SHT31;52070;53.760;9.678;2022-09-27T10:36:21;10.65;94.83
65374;SHT31;52070;53.760;9.678;2022-09-27T10:38:51;10.68;94.87
65374;SHT31;52070;53.760;9.678;2022-09-27T10:41:23;10.69;94.90
65374;SHT31;52070;53.760;9.678;2022-09-27T10:43:50;10.65;94.81
65374;SHT31;52070;53.760;9.678;2022-09-27T10:46:24;10.69;94.79
65374;SHT31;52070;53.760;9.678;2022-09-27T10:49:07;10.75;94.81
65374;SHT31;52070;53.760;9.678;2022-09-27T10:51:39;10.77;94.78
65374;SHT31;52070;53.760;9.678;2022-09-27T10:54:18;10.63;94.34
65374;SHT31;52070;53.760;9.678;2022-09-27T10:56:54;10.63;94.20
65374;SHT31;52070;53.760;9.678;2022-09-27T10:59:21;10.60;94.28
65374;SHT31;52070;53.760;9.678;2022-09-27T11:01:49;10.65;94.47
65374;SHT31;52070;53.760;9.678;2022-09-27T11:04:19;10.69;94.69
65374;SHT31;52070;53.760;9.678;2022-09-27T11:06:49;10.85;94.88
65374;SHT31;52070;53.760;9.678;2022-09-27T11:09:19;10.89;94.86
65374;SHT31;52070;53.760;9.678;2022-09-27T11:11:48;11.01;94.75
65374;SHT31;52070;53.760;9.678;2022-09-27T11:14:20;11.16;94.81
65374;SHT31;52070;53.760;9.678;2022-09-27T11:16:56;11.19;94.77
65374;SHT31;52070;53.760;9.678;2022-09-27T11:19:41;11.12;93.88
65374;SHT31;52070;53.760;9.678;2022-09-27T11:22:34;11.26;93.98
65374;SHT31;52070;53.760;9.678;2022-09-27T11:25:13;11.29;93.80
65374;SHT31;52070;53.760;9.678;2022-09-27T11:27:51;11.39;93.69
65374;SHT31;52070;53.760;9.678;2022-09-27T11:30:22;11.35;92.80
65374;SHT31;52070;53.760;9.678;2022-09-27T11:33:07;11.43;93.24
65374;SHT31;52070;53.760;9.678;2022-09-27T11:35:47;11.49;93.37
65374;SHT31;52070;53.760;9.678;2022-09-27T11:38:24;11.51;92.92
65374;SHT31;52070;53.760;9.678;2022-09-27T11:41:06;11.62;93.28
65374;SHT31;52070;53.760;9.678;2022-09-27T11:43:48;11.69;93.37
65374;SHT31;52070;53.760;9.678;2022-09-27T11:46:23;11.63;92.74
65374;SHT31;52070;53.760;9.678;2022-09-27T11:49:14;11.43;91.90
65374;SHT31;52070;53.760;9.678;2022-09-27T11:51:55;11.39;92.23
65374;SHT31;52070;53.760;9.678;2022-09-27T11:54:38;11.32;92.47
65374;SHT31;52070;53.760;9.678;2022-09-27T11:57:14;11.36;93.01
65374;SHT31;52070;53.760;9.678;2022-09-27T12:00:13;11.38;93.31
65374;SHT31;52070;53.760;9.678;2022-09-27T12:03:05;11.38;93.13
65374;SHT31;52070;53.760;9.678;2022-09-27T12:05:39;11.36;93.01
65374;SHT31;52070;53.760;9.678;2022-09-27T12:08:20;11.33;93.04
65374;SHT31;52070;53.760;9.678;2022-09-27T12:10:56;11.38;93.16
65374;SHT31;52070;53.760;9.678;2022-09-27T12:13:30;11.32;92.89
65374;SHT31;52070;53.760;9.678;2022-09-27T12:15:59;11.33;92.86
65374;SHT31;52070;53.760;9.678;2022-09-27T12:18:28;11.31;92.69
65374;SHT31;52070;53.760;9.678;2022-09-27T12:20:59;11.29;92.84
65374;SHT31;52070;53.760;9.678;2022-09-27T12:23:33;11.35;93.15
65374;SHT31;52070;53.760;9.678;2022-09-27T12:26:07;11.40;93.37
65374;SHT31;52070;53.760;9.678;2022-09-27T12:28:40;11.42;93.40
65374;SHT31;52070;53.760;9.678;2022-09-27T12:31:15;11.39;92.69
65374;SHT31;52070;53.760;9.678;2022-09-27T12:33:48;11.42;92.79
65374;SHT31;52070;53.760;9.678;2022-09-27T12:36:20;11.38;92.75
65374;SHT31;52070;53.760;9.678;2022-09-27T12:38:50;11.36;92.81
65374;SHT31;52070;53.760;9.678;2022-09-27T12:41:21;11.35;92.62
65374;SHT31;52070;53.760;9.678;2022-09-27T12:43:50;11.36;93.04
65374;SHT31;52070;53.760;9.678;2022-09-27T12:46:26;11.31;92.81
65374;SHT31;52070;53.760;9.678;2022-09-27T12:49:04;11.31;92.64
65374;SHT31;52070;53.760;9.678;2022-09-27T12:51:36;11.33;92.54
65374;SHT31;52070;53.760;9.678;2022-09-27T12:54:22;11.39;92.60
65374;SHT31;52070;53.760;9.678;2022-09-27T12:56:59;11.39;92.23
65374;SHT31;52070;53.760;9.678;2022-09-27T12:59:42;11.46;92.79
65374;SHT31;52070;53.760;9.678;2022-09-27T13:06:05;11.47;92.10
65374;SHT31;52070;53.760;9.678;2022-09-27T13:08:52;11.59;92.17
65374;SHT31;52070;53.760;9.678;2022-09-27T13:11:25;11.52;91.47
65374;SHT31;52070;53.760;9.678;2022-09-27T13:13:57;11.52;91.33
65374;SHT31;52070;53.760;9.678;2022-09-27T13:16:26;11.47;90.87
65374;SHT31;52070;53.760;9.678;2022-09-27T13:18:55;11.55;90.96
65374;SHT31;52070;53.760;9.678;2022-09-27T13:21:54;11.58;90.90
65374;SHT31;52070;53.760;9.678;2022-09-27T13:24:44;11.55;90.97
65374;SHT31;52070;53.760;9.678;2022-09-27T13:27:39;11.58;91.42
65374;SHT31;52070;53.760;9.678;2022-09-27T13:30:44;11.63;91.35
65374;SHT31;52070;53.760;9.678;2022-09-27T13:33:29;11.55;91.40
65374;SHT31;52070;53.760;9.678;2022-09-27T13:38:52;11.55;92.35
65374;SHT31;52070;53.760;9.678;2022-09-27T13:41:27;11.60;92.50
65374;SHT31;52070;53.760;9.678;2022-09-27T13:44:02;11.62;92.18
65374;SHT31;52070;53.760;9.678;2022-09-27T13:46:35;11.67;92.03
65374;SHT31;52070;53.760;9.678;2022-09-27T13:49:10;11.69;92.02
65374;SHT31;52070;53.760;9.678;2022-09-27T13:51:42;11.76;92.10
65374;SHT31;52070;53.760;9.678;2022-09-27T13:54:39;11.90;92.17
65374;SHT31;52070;53.760;9.678;2022-09-27T13:57:39;11.96;91.58
65374;SHT31;52070;53.760;9.678;2022-09-27T14:00:11;12.04;91.27
65374;SHT31;52070;53.760;9.678;2022-09-27T14:02:48;12.04;90.74
65374;SHT31;52070;53.760;9.678;2022-09-27T14:05:21;12.10;90.69
65374;SHT31;52070;53.760;9.678;2022-09-27T14:07:50;12.13;90.32
65374;SHT31;52070;53.760;9.678;2022-09-27T14:10:20;12.16;90.50
65374;SHT31;52070;53.760;9.678;2022-09-27T14:12:51;12.10;88.80
65374;SHT31;52070;53.760;9.678;2022-09-27T14:15:22;12.06;89.31
65374;SHT31;52070;53.760;9.678;2022-09-27T14:17:52;12.06;89.68
65374;SHT31;52070;53.760;9.678;2022-09-27T14:20:31;12.04;89.02
65374;SHT31;52070;53.760;9.678;2022-09-27T14:22:58;12.06;89.41
65374;SHT31;52070;53.760;9.678;2022-09-27T14:25:26;12.03;88.90
65374;SHT31;52070;53.760;9.678;2022-09-27T14:27:53;11.97;89.00
65374;SHT31;52070;53.760;9.678;2022-09-27T14:30:24;12.00;88.90
65374;SHT31;52070;53.760;9.678;2022-09-27T14:32:55;11.91;88.27
65374;SHT31;52070;53.760;9.678;2022-09-27T14:35:23;11.94;88.38
65374;SHT31;52070;53.760;9.678;2022-09-27T14:38:10;11.98;87.98
65374;SHT31;52070;53.760;9.678;2022-09-27T14:40:41;12.04;87.64
65374;SHT31;52070;53.760;9.678;2022-09-27T14:43:13;12.14;88.33
65374;SHT31;52070;53.760;9.678;2022-09-27T14:45:41;12.21;86.81
65374;SHT31;52070;53.760;9.678;2022-09-27T14:48:20;12.24;86.96
65374;SHT31;52070;53.760;9.678;2022-09-27T14:50:54;12.27;87.65
65374;SHT31;52070;53.760;9.678;2022-09-27T14:53:23;12.17;87.54
65374;SHT31;52070;53.760;9.678;2022-09-27T14:55:50;12.18;88.00
65374;SHT31;52070;53.760;9.678;2022-09-27T14:58:20;12.24;88.41
65374;SHT31;52070;53.760;9.678;2022-09-27T15:00:48;12.24;88.28
65374;SHT31;52070;53.760;9.678;2022-09-27T15:03:21;12.30;88.18
65374;SHT31;52070;53.760;9.678;2022-09-27T15:05:51;12.31;88.04
65374;SHT31;52070;53.760;9.678;2022-09-27T15:08:19;12.16;87.06
65374;SHT31;52070;53.760;9.678;2022-09-27T15:10:48;12.14;87.63
65374;SHT31;52070;53.760;9.678;2022-09-27T15:13:17;12.07;87.78
65374;SHT31;52070;53.760;9.678;2022-09-27T15:15:45;12.03;88.27
65374;SHT31;52070;53.760;9.678;2022-09-27T15:18:32;11.98;88.68
65374;SHT31;52070;53.760;9.678;2022-09-27T15:21:00;11.96;88.80
65374;SHT31;52070;53.760;9.678;2022-09-27T15:23:28;11.87;88.65
65374;SHT31;52070;53.760;9.678;2022-09-27T15:25:59;11.83;88.83
65374;SHT31;52070;53.760;9.678;2022-09-27T15:28:27;11.80;89.00
65374;SHT31;52070;53.760;9.678;2022-09-27T15:30:56;11.69;88.35
65374;SHT31;52070;53.760;9.678;2022-09-27T15:33:25;11.22;84.85
65374;SHT31;52070;53.760;9.678;2022-09-27T15:35:56;10.48;84.17
65374;SHT31;52070;53.760;9.678;2022-09-27T15:38:28;10.14;86.68
65374;SHT31;52070;53.760;9.678;2022-09-27T15:41:00;9.78;87.49
65374;SHT31;52070;53.760;9.678;2022-09-27T15:43:29;9.58;88.67
65374;SHT31;52070;53.760;9.678;2022-09-27T15:45:57;9.45;89.50
65374;SHT31;52070;53.760;9.678;2022-09-27T15:48:28;9.39;90.17
65374;SHT31;52070;53.760;9.678;2022-09-27T15:50:58;9.28;91.20
65374;SHT31;52070;53.760;9.678;2022-09-27T15:53:42;9.30;92.47
65374;SHT31;52070;53.760;9.678;2022-09-27T15:56:13;9.38;93.32
65374;SHT31;52070;53.760;9.678;2022-09-27T15:58:40;9.45;93.86
65374;SHT31;52070;53.760;9.678;2022-09-27T16:01:16;9.49;94.17
65374;SHT31;52070;53.760;9.678;2022-09-27T16:03:44;9.52;94.35
65374;SHT31;52070;53.760;9.678;2022-09-27T16:06:12;9.53;94.47
65374;SHT31;52070;53.760;9.678;2022-09-27T16:08:39;9.55;94.50
65374;SHT31;52070;53.760;9.678;2022-09-27T16:11:11;9.56;94.64